Погода Дан-Кун-Тотна неделю

Дансай, Таиланд

04 - 10 марта
  • 04марта
    Сегодня
    +25°
    +36°
    Ясно и безоблачно
    ВремяПогодаТемператураВлажностьДавлениеВетер, м/сВероятность осадков
    01:00Небольшая облачность+28°C73 %739 мм1.8 м/с2 %
    04:00Небольшая облачность+26°C78 %738 мм1.6 м/с7 %
    07:00Ясно и безоблачно+26°C87 %740 мм2.7 м/с8 %
    10:00Ясно и безоблачно+32°C52 %741 мм3.3 м/с2 %
    13:00Ясно и безоблачно+36°C40 %739 мм4.2 м/с12 %
    16:00Практически безоблачно+35°C44 %737 мм3.9 м/с11 %
    19:00Ясно и безоблачно+33°C54 %738 мм2.6 м/с3 %
    22:00Ясно и безоблачно+30°C66 %739 мм2.6 м/с2 %
  • 05марта
    Вторник
    +23°
    +37°
    Практически безоблачно
    ВремяПогодаТемператураВлажностьДавлениеВетер, м/сВероятность осадков
    01:00Ясно и безоблачно+28°C77 %739 мм1.9 м/с2 %
    04:00Практически безоблачно+26°C84 %738 мм2.6 м/с2 %
    07:00Облачно с прояснениями+26°C83 %739 мм1.5 м/с2 %
    10:00Небольшая облачность+33°C51 %741 мм2.9 м/с2 %
    13:00Практически безоблачно+37°C27 %739 мм4.2 м/с2 %
    16:00Практически безоблачно+37°C23 %737 мм4.4 м/с2 %
    19:00Ясно и безоблачно+32°C41 %737 мм3.4 м/с2 %
    22:00Практически безоблачно+29°C50 %738 мм2.2 м/с2 %
  • 06марта
    Среда
    +22°
    +39°
    Ясно и безоблачно
    ВремяПогодаТемператураВлажностьДавлениеВетер, м/сВероятность осадков
    01:00Небольшая облачность+26°C53 %737 мм2.3 м/с2 %
    04:00Ясно и безоблачно+25°C74 %737 мм2.3 м/с2 %
    07:00Ясно и безоблачно+23°C79 %739 мм0.1 м/с2 %
    10:00Ясно и безоблачно+31°C47 %740 мм1.0 м/с2 %
    13:00Ясно и безоблачно+37°C27 %738 мм2.7 м/с2 %
    16:00Ясно и безоблачно+38°C27 %736 мм3.9 м/с2 %
    19:00Ясно и безоблачно+34°C40 %736 мм3.4 м/с2 %
    22:00Ясно и безоблачно+31°C55 %737 мм2.6 м/с2 %
  • 07марта
    Четверг
    +25°
    +38°
    Ясно и безоблачно
    ВремяПогодаТемператураВлажностьДавлениеВетер, м/сВероятность осадков
    01:00Ясно и безоблачно+27°C59 %737 мм1.9 м/с2 %
    04:00Ясно и безоблачно+26°C59 %737 мм2.8 м/с2 %
    07:00Ясно и безоблачно+23°C68 %738 мм1.1 м/с2 %
    10:00Ясно и безоблачно+31°C40 %740 мм0.6 м/с2 %
    13:00Ясно и безоблачно+37°C25 %738 мм0.4 м/с2 %
    16:00Практически безоблачно+38°C20 %736 мм1.7 м/с2 %
    19:00Ясно и безоблачно+33°C33 %736 мм1.6 м/с2 %
    22:00Ясно и безоблачно+31°C48 %738 мм2.3 м/с2 %
  • 08марта
    Пятница
    +24°
    +37°
    Ясно и безоблачно
    ВремяПогодаТемператураВлажностьДавлениеВетер, м/сВероятность осадков
    01:00Ясно и безоблачно+28°C58 %738 мм1.9 м/с2 %
    04:00Ясно и безоблачно+27°C64 %738 мм1.7 м/с2 %
    07:00Ясно и безоблачно+26°C64 %740 мм2.7 м/с2 %
    10:00Ясно и безоблачно+30°C49 %741 мм3.7 м/с2 %
    13:00Ясно и безоблачно+34°C40 %739 мм2.7 м/с10 %
    16:00Практически безоблачно+36°C37 %737 мм2.1 м/с20 %
    19:00Небольшая облачность+33°C45 %738 мм2.0 м/с16 %
    22:00Практически безоблачно+30°C64 %740 мм3.9 м/с6 %
Мы используем cookies
Соглашаюсь